sensor_id;sensor_type;location;lat;lon;timestamp;P1;durP1;ratioP1;P2;durP2;ratioP2
11247;SDS011;5681;53.316;13.950;2023-05-17T00:00:16;8.73;;;2.50;;
11247;SDS011;5681;53.316;13.950;2023-05-17T00:02:43;8.33;;;2.57;;
11247;SDS011;5681;53.316;13.950;2023-05-17T00:05:09;6.23;;;2.60;;
11247;SDS011;5681;53.316;13.950;2023-05-17T00:07:36;8.83;;;2.73;;
11247;SDS011;5681;53.316;13.950;2023-05-17T00:10:04;7.50;;;2.73;;
11247;SDS011;5681;53.316;13.950;2023-05-17T00:12:31;8.47;;;2.60;;
11247;SDS011;5681;53.316;13.950;2023-05-17T00:14:58;11.03;;;3.20;;
11247;SDS011;5681;53.316;13.950;2023-05-17T00:17:24;10.90;;;3.03;;
11247;SDS011;5681;53.316;13.950;2023-05-17T00:19:50;7.50;;;3.10;;
11247;SDS011;5681;53.316;13.950;2023-05-17T00:22:17;10.73;;;3.27;;
11247;SDS011;5681;53.316;13.950;2023-05-17T00:24:43;10.73;;;3.50;;
11247;SDS011;5681;53.316;13.950;2023-05-17T00:27:11;11.27;;;3.50;;
11247;SDS011;5681;53.316;13.950;2023-05-17T00:29:37;9.00;;;3.47;;
11247;SDS011;5681;53.316;13.950;2023-05-17T00:32:04;11.67;;;3.77;;
11247;SDS011;5681;53.316;13.950;2023-05-17T00:34:30;7.77;;;3.27;;
11247;SDS011;5681;53.316;13.950;2023-05-17T00:36:57;12.37;;;3.70;;
11247;SDS011;5681;53.316;13.950;2023-05-17T00:39:23;11.50;;;3.37;;
11247;SDS011;5681;53.316;13.950;2023-05-17T00:41:49;9.43;;;3.63;;
11247;SDS011;5681;53.316;13.950;2023-05-17T00:44:17;14.30;;;3.63;;
11247;SDS011;5681;53.316;13.950;2023-05-17T00:46:43;13.33;;;3.33;;
11247;SDS011;5681;53.316;13.950;2023-05-17T00:49:10;13.97;;;3.30;;
11247;SDS011;5681;53.316;13.950;2023-05-17T00:51:37;9.73;;;3.70;;
11247;SDS011;5681;53.316;13.950;2023-05-17T00:54:04;14.83;;;4.23;;
11247;SDS011;5681;53.316;13.950;2023-05-17T00:56:30;9.67;;;3.70;;
11247;SDS011;5681;53.316;13.950;2023-05-17T00:58:57;13.80;;;3.60;;
11247;SDS011;5681;53.316;13.950;2023-05-17T01:01:26;13.33;;;4.27;;
11247;SDS011;5681;53.316;13.950;2023-05-17T01:03:52;12.33;;;4.03;;
11247;SDS011;5681;53.316;13.950;2023-05-17T01:06:19;9.67;;;3.17;;
11247;SDS011;5681;53.316;13.950;2023-05-17T01:08:45;13.00;;;3.97;;
11247;SDS011;5681;53.316;13.950;2023-05-17T01:11:13;13.60;;;3.50;;
11247;SDS011;5681;53.316;13.950;2023-05-17T01:13:47;13.93;;;4.00;;
11247;SDS011;5681;53.316;13.950;2023-05-17T01:16:19;10.27;;;3.30;;
11247;SDS011;5681;53.316;13.950;2023-05-17T01:18:51;11.47;;;3.63;;
11247;SDS011;5681;53.316;13.950;2023-05-17T01:21:27;7.17;;;2.97;;
11247;SDS011;5681;53.316;13.950;2023-05-17T01:24:02;13.77;;;3.63;;
11247;SDS011;5681;53.316;13.950;2023-05-17T01:26:37;9.50;;;3.00;;
11247;SDS011;5681;53.316;13.950;2023-05-17T01:29:04;9.57;;;3.20;;
11247;SDS011;5681;53.316;13.950;2023-05-17T01:31:34;10.93;;;3.70;;
11247;SDS011;5681;53.316;13.950;2023-05-17T01:34:05;9.77;;;3.30;;
11247;SDS011;5681;53.316;13.950;2023-05-17T01:36:31;13.47;;;3.23;;
11247;SDS011;5681;53.316;13.950;2023-05-17T01:38:58;14.60;;;4.27;;
11247;SDS011;5681;53.316;13.950;2023-05-17T01:41:26;10.23;;;3.47;;
11247;SDS011;5681;53.316;13.950;2023-05-17T01:43:58;9.93;;;3.40;;
11247;SDS011;5681;53.316;13.950;2023-05-17T01:46:28;10.80;;;3.80;;
11247;SDS011;5681;53.316;13.950;2023-05-17T01:48:59;10.77;;;3.60;;
11247;SDS011;5681;53.316;13.950;2023-05-17T01:51:32;9.43;;;4.17;;
11247;SDS011;5681;53.316;13.950;2023-05-17T01:54:00;15.17;;;4.47;;
11247;SDS011;5681;53.316;13.950;2023-05-17T01:56:29;9.10;;;3.77;;
11247;SDS011;5681;53.316;13.950;2023-05-17T01:59:00;11.00;;;4.27;;
11247;SDS011;5681;53.316;13.950;2023-05-17T02:01:28;12.90;;;4.30;;
11247;SDS011;5681;53.316;13.950;2023-05-17T02:03:55;17.30;;;4.43;;
11247;SDS011;5681;53.316;13.950;2023-05-17T02:06:22;13.07;;;4.33;;
11247;SDS011;5681;53.316;13.950;2023-05-17T02:08:48;13.83;;;4.87;;
11247;SDS011;5681;53.316;13.950;2023-05-17T02:11:14;12.57;;;4.17;;
11247;SDS011;5681;53.316;13.950;2023-05-17T02:13:40;20.10;;;5.37;;
11247;SDS011;5681;53.316;13.950;2023-05-17T02:16:08;12.37;;;4.17;;
11247;SDS011;5681;53.316;13.950;2023-05-17T02:18:35;12.23;;;4.53;;
11247;SDS011;5681;53.316;13.950;2023-05-17T02:21:02;12.43;;;4.17;;
11247;SDS011;5681;53.316;13.950;2023-05-17T02:23:28;11.73;;;4.47;;
11247;SDS011;5681;53.316;13.950;2023-05-17T02:25:55;13.17;;;4.53;;
11247;SDS011;5681;53.316;13.950;2023-05-17T02:28:21;10.43;;;3.83;;
11247;SDS011;5681;53.316;13.950;2023-05-17T02:30:47;15.20;;;4.80;;
11247;SDS011;5681;53.316;13.950;2023-05-17T02:33:15;13.00;;;4.13;;
11247;SDS011;5681;53.316;13.950;2023-05-17T02:35:41;8.90;;;4.17;;
11247;SDS011;5681;53.316;13.950;2023-05-17T02:38:07;12.00;;;4.87;;
11247;SDS011;5681;53.316;13.950;2023-05-17T02:40:34;14.73;;;4.33;;
11247;SDS011;5681;53.316;13.950;2023-05-17T02:43:00;12.17;;;4.50;;
11247;SDS011;5681;53.316;13.950;2023-05-17T02:45:26;14.63;;;4.37;;
11247;SDS011;5681;53.316;13.950;2023-05-17T02:47:53;13.83;;;5.23;;
11247;SDS011;5681;53.316;13.950;2023-05-17T02:50:20;13.90;;;4.60;;
11247;SDS011;5681;53.316;13.950;2023-05-17T02:52:47;12.70;;;4.40;;
11247;SDS011;5681;53.316;13.950;2023-05-17T02:55:13;14.90;;;5.40;;
11247;SDS011;5681;53.316;13.950;2023-05-17T02:57:40;19.77;;;5.23;;
11247;SDS011;5681;53.316;13.950;2023-05-17T03:00:06;16.63;;;6.07;;
11247;SDS011;5681;53.316;13.950;2023-05-17T03:02:33;15.60;;;5.77;;
11247;SDS011;5681;53.316;13.950;2023-05-17T03:05:00;17.23;;;5.23;;
11247;SDS011;5681;53.316;13.950;2023-05-17T03:07:28;11.30;;;4.90;;
11247;SDS011;5681;53.316;13.950;2023-05-17T03:09:54;18.90;;;6.10;;
11247;SDS011;5681;53.316;13.950;2023-05-17T03:12:21;13.30;;;4.80;;
11247;SDS011;5681;53.316;13.950;2023-05-17T03:14:47;14.90;;;5.30;;
11247;SDS011;5681;53.316;13.950;2023-05-17T03:17:13;12.30;;;4.30;;
11247;SDS011;5681;53.316;13.950;2023-05-17T03:19:40;16.73;;;5.30;;
11247;SDS011;5681;53.316;13.950;2023-05-17T03:22:06;12.30;;;4.83;;
11247;SDS011;5681;53.316;13.950;2023-05-17T03:24:33;20.00;;;5.40;;
11247;SDS011;5681;53.316;13.950;2023-05-17T03:27:00;16.33;;;4.80;;
11247;SDS011;5681;53.316;13.950;2023-05-17T03:29:26;16.93;;;5.47;;
11247;SDS011;5681;53.316;13.950;2023-05-17T03:31:52;14.27;;;5.57;;
11247;SDS011;5681;53.316;13.950;2023-05-17T03:34:19;15.13;;;5.50;;
11247;SDS011;5681;53.316;13.950;2023-05-17T03:36:45;13.50;;;5.30;;
11247;SDS011;5681;53.316;13.950;2023-05-17T03:39:11;16.23;;;5.60;;
11247;SDS011;5681;53.316;13.950;2023-05-17T03:41:39;16.30;;;5.27;;
11247;SDS011;5681;53.316;13.950;2023-05-17T03:44:06;15.30;;;5.53;;
11247;SDS011;5681;53.316;13.950;2023-05-17T03:46:32;13.07;;;5.30;;
11247;SDS011;5681;53.316;13.950;2023-05-17T03:48:59;14.80;;;5.37;;
11247;SDS011;5681;53.316;13.950;2023-05-17T03:51:25;15.87;;;5.20;;
11247;SDS011;5681;53.316;13.950;2023-05-17T03:53:56;18.07;;;5.40;;
11247;SDS011;5681;53.316;13.950;2023-05-17T03:56:23;13.33;;;5.27;;
11247;SDS011;5681;53.316;13.950;2023-05-17T03:58:50;17.57;;;5.30;;
11247;SDS011;5681;53.316;13.950;2023-05-17T04:01:17;15.97;;;5.17;;
11247;SDS011;5681;53.316;13.950;2023-05-17T04:03:44;15.83;;;5.17;;
11247;SDS011;5681;53.316;13.950;2023-05-17T04:06:12;24.20;;;5.67;;
11247;SDS011;5681;53.316;13.950;2023-05-17T04:08:38;17.17;;;6.10;;
11247;SDS011;5681;53.316;13.950;2023-05-17T04:11:05;16.53;;;5.80;;
11247;SDS011;5681;53.316;13.950;2023-05-17T04:13:36;14.73;;;5.10;;
11247;SDS011;5681;53.316;13.950;2023-05-17T04:16:05;12.07;;;5.17;;
11247;SDS011;5681;53.316;13.950;2023-05-17T04:18:32;20.07;;;5.93;;
11247;SDS011;5681;53.316;13.950;2023-05-17T04:20:59;16.83;;;5.60;;
11247;SDS011;5681;53.316;13.950;2023-05-17T04:23:25;11.83;;;4.53;;
11247;SDS011;5681;53.316;13.950;2023-05-17T04:25:52;12.27;;;4.87;;
11247;SDS011;5681;53.316;13.950;2023-05-17T04:28:18;16.47;;;4.97;;
11247;SDS011;5681;53.316;13.950;2023-05-17T04:30:45;11.83;;;5.10;;
11247;SDS011;5681;53.316;13.950;2023-05-17T04:33:13;19.80;;;5.13;;
11247;SDS011;5681;53.316;13.950;2023-05-17T04:35:40;17.03;;;5.30;;
11247;SDS011;5681;53.316;13.950;2023-05-17T04:38:07;17.17;;;5.07;;
11247;SDS011;5681;53.316;13.950;2023-05-17T04:40:34;22.70;;;4.70;;
11247;SDS011;5681;53.316;13.950;2023-05-17T04:43:01;38.73;;;6.17;;
11247;SDS011;5681;53.316;13.950;2023-05-17T04:45:27;22.03;;;4.63;;
11247;SDS011;5681;53.316;13.950;2023-05-17T04:47:54;19.53;;;4.53;;
11247;SDS011;5681;53.316;13.950;2023-05-17T04:50:22;16.03;;;4.20;;
11247;SDS011;5681;53.316;13.950;2023-05-17T04:52:49;19.80;;;4.30;;
11247;SDS011;5681;53.316;13.950;2023-05-17T04:55:18;23.47;;;4.67;;
11247;SDS011;5681;53.316;13.950;2023-05-17T04:57:44;19.17;;;4.50;;
11247;SDS011;5681;53.316;13.950;2023-05-17T05:00:11;22.37;;;5.27;;
11247;SDS011;5681;53.316;13.950;2023-05-17T05:02:39;23.13;;;4.40;;
11247;SDS011;5681;53.316;13.950;2023-05-17T05:05:06;19.20;;;4.17;;
11247;SDS011;5681;53.316;13.950;2023-05-17T05:07:34;21.57;;;4.50;;
11247;SDS011;5681;53.316;13.950;2023-05-17T05:10:02;18.23;;;4.40;;
11247;SDS011;5681;53.316;13.950;2023-05-17T05:12:28;16.03;;;4.17;;
11247;SDS011;5681;53.316;13.950;2023-05-17T05:14:54;20.70;;;4.00;;
11247;SDS011;5681;53.316;13.950;2023-05-17T05:17:21;18.20;;;3.87;;
11247;SDS011;5681;53.316;13.950;2023-05-17T05:19:47;15.68;;;4.05;;
11247;SDS011;5681;53.316;13.950;2023-05-17T05:22:14;15.47;;;4.13;;
11247;SDS011;5681;53.316;13.950;2023-05-17T05:24:41;17.17;;;3.90;;
11247;SDS011;5681;53.316;13.950;2023-05-17T05:27:08;20.47;;;4.10;;
11247;SDS011;5681;53.316;13.950;2023-05-17T05:29:34;14.60;;;3.67;;
11247;SDS011;5681;53.316;13.950;2023-05-17T05:32:00;18.98;;;3.72;;
11247;SDS011;5681;53.316;13.950;2023-05-17T05:34:27;19.83;;;4.15;;
11247;SDS011;5681;53.316;13.950;2023-05-17T05:36:55;16.85;;;3.60;;
11247;SDS011;5681;53.316;13.950;2023-05-17T05:39:21;16.10;;;3.25;;
11247;SDS011;5681;53.316;13.950;2023-05-17T05:41:49;22.75;;;4.05;;
11247;SDS011;5681;53.316;13.950;2023-05-17T05:44:16;14.32;;;3.40;;
11247;SDS011;5681;53.316;13.950;2023-05-17T05:46:43;18.17;;;3.58;;
11247;SDS011;5681;53.316;13.950;2023-05-17T05:49:09;17.15;;;4.00;;
11247;SDS011;5681;53.316;13.950;2023-05-17T05:51:35;11.95;;;3.53;;
11247;SDS011;5681;53.316;13.950;2023-05-17T05:54:02;15.23;;;3.13;;
11247;SDS011;5681;53.316;13.950;2023-05-17T05:56:28;14.75;;;3.67;;
11247;SDS011;5681;53.316;13.950;2023-05-17T05:58:56;18.13;;;3.80;;
11247;SDS011;5681;53.316;13.950;2023-05-17T06:01:22;23.05;;;4.13;;
11247;SDS011;5681;53.316;13.950;2023-05-17T06:03:49;14.77;;;3.10;;
11247;SDS011;5681;53.316;13.950;2023-05-17T06:06:15;18.30;;;3.70;;
11247;SDS011;5681;53.316;13.950;2023-05-17T06:08:43;10.07;;;2.85;;
11247;SDS011;5681;53.316;13.950;2023-05-17T06:11:11;12.80;;;3.05;;
11247;SDS011;5681;53.316;13.950;2023-05-17T06:13:37;14.95;;;3.42;;
11247;SDS011;5681;53.316;13.950;2023-05-17T06:16:05;15.07;;;3.33;;
11247;SDS011;5681;53.316;13.950;2023-05-17T06:18:32;17.52;;;3.75;;
11247;SDS011;5681;53.316;13.950;2023-05-17T06:20:58;15.35;;;3.08;;
11247;SDS011;5681;53.316;13.950;2023-05-17T06:23:24;14.73;;;3.05;;
11247;SDS011;5681;53.316;13.950;2023-05-17T06:25:51;17.23;;;3.25;;
11247;SDS011;5681;53.316;13.950;2023-05-17T06:28:17;18.30;;;3.60;;
11247;SDS011;5681;53.316;13.950;2023-05-17T06:30:43;13.15;;;3.00;;
11247;SDS011;5681;53.316;13.950;2023-05-17T06:33:11;11.82;;;3.35;;
11247;SDS011;5681;53.316;13.950;2023-05-17T06:35:38;18.48;;;3.15;;
11247;SDS011;5681;53.316;13.950;2023-05-17T06:38:04;14.05;;;3.40;;
11247;SDS011;5681;53.316;13.950;2023-05-17T06:40:31;13.95;;;3.35;;
11247;SDS011;5681;53.316;13.950;2023-05-17T06:42:57;15.38;;;3.20;;
11247;SDS011;5681;53.316;13.950;2023-05-17T06:45:23;18.88;;;3.67;;
11247;SDS011;5681;53.316;13.950;2023-05-17T06:47:51;20.38;;;3.45;;
11247;SDS011;5681;53.316;13.950;2023-05-17T06:50:18;16.05;;;3.42;;
11247;SDS011;5681;53.316;13.950;2023-05-17T06:52:45;10.88;;;3.25;;
11247;SDS011;5681;53.316;13.950;2023-05-17T06:55:11;17.73;;;3.90;;
11247;SDS011;5681;53.316;13.950;2023-05-17T06:57:37;15.73;;;3.47;;
11247;SDS011;5681;53.316;13.950;2023-05-17T07:00:04;11.88;;;3.13;;
11247;SDS011;5681;53.316;13.950;2023-05-17T07:02:34;13.80;;;3.08;;
11247;SDS011;5681;53.316;13.950;2023-05-17T07:05:01;13.10;;;3.00;;
11247;SDS011;5681;53.316;13.950;2023-05-17T07:07:29;15.43;;;3.75;;
11247;SDS011;5681;53.316;13.950;2023-05-17T07:09:55;14.07;;;3.08;;
11247;SDS011;5681;53.316;13.950;2023-05-17T07:12:22;13.85;;;3.42;;
11247;SDS011;5681;53.316;13.950;2023-05-17T07:14:48;12.18;;;3.40;;
11247;SDS011;5681;53.316;13.950;2023-05-17T07:17:14;13.25;;;3.15;;
11247;SDS011;5681;53.316;13.950;2023-05-17T07:19:41;15.68;;;3.05;;
11247;SDS011;5681;53.316;13.950;2023-05-17T07:22:07;13.63;;;3.15;;
11247;SDS011;5681;53.316;13.950;2023-05-17T07:24:35;10.25;;;3.17;;
11247;SDS011;5681;53.316;13.950;2023-05-17T07:27:01;16.42;;;3.17;;
11247;SDS011;5681;53.316;13.950;2023-05-17T07:29:27;15.85;;;3.10;;
11247;SDS011;5681;53.316;13.950;2023-05-17T07:31:54;13.45;;;3.25;;
11247;SDS011;5681;53.316;13.950;2023-05-17T07:34:20;15.30;;;3.15;;
11247;SDS011;5681;53.316;13.950;2023-05-17T07:36:46;11.05;;;3.03;;
11247;SDS011;5681;53.316;13.950;2023-05-17T07:39:13;19.00;;;3.80;;
11247;SDS011;5681;53.316;13.950;2023-05-17T07:41:41;11.82;;;3.03;;
11247;SDS011;5681;53.316;13.950;2023-05-17T07:44:07;12.63;;;3.10;;
11247;SDS011;5681;53.316;13.950;2023-05-17T07:46:33;12.60;;;3.03;;
11247;SDS011;5681;53.316;13.950;2023-05-17T07:49:00;16.90;;;3.40;;
11247;SDS011;5681;53.316;13.950;2023-05-17T07:51:26;15.80;;;3.42;;
11247;SDS011;5681;53.316;13.950;2023-05-17T07:53:53;15.82;;;3.20;;
11247;SDS011;5681;53.316;13.950;2023-05-17T07:56:19;11.10;;;2.85;;
11247;SDS011;5681;53.316;13.950;2023-05-17T07:58:47;8.77;;;3.10;;
11247;SDS011;5681;53.316;13.950;2023-05-17T08:01:13;11.93;;;3.13;;
11247;SDS011;5681;53.316;13.950;2023-05-17T08:03:39;12.38;;;3.50;;
11247;SDS011;5681;53.316;13.950;2023-05-17T08:06:11;14.00;;;3.55;;
11247;SDS011;5681;53.316;13.950;2023-05-17T08:08:38;13.02;;;2.92;;
11247;SDS011;5681;53.316;13.950;2023-05-17T08:11:05;12.15;;;2.83;;
11247;SDS011;5681;53.316;13.950;2023-05-17T08:13:31;13.00;;;2.85;;
11247;SDS011;5681;53.316;13.950;2023-05-17T08:15:59;13.88;;;3.42;;
11247;SDS011;5681;53.316;13.950;2023-05-17T08:18:27;13.93;;;4.72;;
11247;SDS011;5681;53.316;13.950;2023-05-17T08:20:53;11.05;;;2.80;;
11247;SDS011;5681;53.316;13.950;2023-05-17T08:23:20;12.00;;;3.40;;
11247;SDS011;5681;53.316;13.950;2023-05-17T08:25:46;9.95;;;2.65;;
11247;SDS011;5681;53.316;13.950;2023-05-17T08:28:13;9.35;;;2.95;;
11247;SDS011;5681;53.316;13.950;2023-05-17T08:30:39;14.00;;;3.17;;
11247;SDS011;5681;53.316;13.950;2023-05-17T08:33:09;15.35;;;3.53;;
11247;SDS011;5681;53.316;13.950;2023-05-17T08:35:36;11.52;;;5.10;;
11247;SDS011;5681;53.316;13.950;2023-05-17T08:38:02;10.15;;;3.38;;
11247;SDS011;5681;53.316;13.950;2023-05-17T08:40:28;11.48;;;2.90;;
11247;SDS011;5681;53.316;13.950;2023-05-17T08:42:55;6.38;;;2.30;;
11247;SDS011;5681;53.316;13.950;2023-05-17T08:45:22;10.85;;;3.00;;
11247;SDS011;5681;53.316;13.950;2023-05-17T08:47:48;9.85;;;3.08;;
11247;SDS011;5681;53.316;13.950;2023-05-17T08:50:19;12.65;;;3.00;;
11247;SDS011;5681;53.316;13.950;2023-05-17T08:52:45;11.77;;;2.60;;
11247;SDS011;5681;53.316;13.950;2023-05-17T08:55:12;10.30;;;2.83;;
11247;SDS011;5681;53.316;13.950;2023-05-17T08:57:40;9.35;;;2.72;;
11247;SDS011;5681;53.316;13.950;2023-05-17T09:00:07;10.27;;;3.15;;
11247;SDS011;5681;53.316;13.950;2023-05-17T09:02:36;12.57;;;2.72;;
11247;SDS011;5681;53.316;13.950;2023-05-17T09:05:03;13.60;;;3.03;;
11247;SDS011;5681;53.316;13.950;2023-05-17T09:07:31;13.05;;;2.70;;
11247;SDS011;5681;53.316;13.950;2023-05-17T09:09:58;13.32;;;2.85;;
11247;SDS011;5681;53.316;13.950;2023-05-17T09:12:24;9.20;;;3.13;;
11247;SDS011;5681;53.316;13.950;2023-05-17T09:14:50;10.57;;;2.78;;
11247;SDS011;5681;53.316;13.950;2023-05-17T09:17:17;14.75;;;3.25;;
11247;SDS011;5681;53.316;13.950;2023-05-17T09:19:45;11.93;;;3.05;;
11247;SDS011;5681;53.316;13.950;2023-05-17T09:22:12;13.18;;;3.38;;
11247;SDS011;5681;53.316;13.950;2023-05-17T09:24:41;11.82;;;2.70;;
11247;SDS011;5681;53.316;13.950;2023-05-17T09:27:08;10.20;;;3.33;;
11247;SDS011;5681;53.316;13.950;2023-05-17T09:29:34;9.73;;;2.60;;
11247;SDS011;5681;53.316;13.950;2023-05-17T09:32:10;15.85;;;3.45;;
11247;SDS011;5681;53.316;13.950;2023-05-17T09:34:37;10.90;;;2.85;;
11247;SDS011;5681;53.316;13.950;2023-05-17T09:37:04;11.60;;;2.65;;
11247;SDS011;5681;53.316;13.950;2023-05-17T09:39:31;7.25;;;2.40;;
11247;SDS011;5681;53.316;13.950;2023-05-17T09:41:58;11.20;;;2.78;;
11247;SDS011;5681;53.316;13.950;2023-05-17T09:44:25;9.80;;;2.67;;
11247;SDS011;5681;53.316;13.950;2023-05-17T09:46:51;8.50;;;2.75;;
11247;SDS011;5681;53.316;13.950;2023-05-17T09:49:17;11.98;;;2.92;;
11247;SDS011;5681;53.316;13.950;2023-05-17T09:51:45;9.75;;;2.67;;
11247;SDS011;5681;53.316;13.950;2023-05-17T09:54:13;10.38;;;2.80;;
11247;SDS011;5681;53.316;13.950;2023-05-17T09:56:39;10.70;;;3.75;;
11247;SDS011;5681;53.316;13.950;2023-05-17T09:59:10;9.32;;;2.55;;
11247;SDS011;5681;53.316;13.950;2023-05-17T10:01:41;7.47;;;2.45;;
11247;SDS011;5681;53.316;13.950;2023-05-17T10:04:09;12.07;;;2.80;;
11247;SDS011;5681;53.316;13.950;2023-05-17T10:06:37;10.25;;;2.40;;
11247;SDS011;5681;53.316;13.950;2023-05-17T10:09:05;12.13;;;3.10;;
11247;SDS011;5681;53.316;13.950;2023-05-17T10:11:31;8.88;;;3.00;;
11247;SDS011;5681;53.316;13.950;2023-05-17T10:14:01;16.02;;;3.03;;
11247;SDS011;5681;53.316;13.950;2023-05-17T10:16:32;10.23;;;2.60;;
11247;SDS011;5681;53.316;13.950;2023-05-17T10:18:59;7.88;;;2.78;;
11247;SDS011;5681;53.316;13.950;2023-05-17T10:21:27;8.52;;;2.85;;
11247;SDS011;5681;53.316;13.950;2023-05-17T10:23:55;9.82;;;2.67;;
11247;SDS011;5681;53.316;13.950;2023-05-17T10:26:21;8.50;;;2.72;;
11247;SDS011;5681;53.316;13.950;2023-05-17T10:28:48;9.10;;;2.42;;
11247;SDS011;5681;53.316;13.950;2023-05-17T10:31:17;9.07;;;2.78;;
11247;SDS011;5681;53.316;13.950;2023-05-17T10:33:45;6.78;;;2.53;;
11247;SDS011;5681;53.316;13.950;2023-05-17T10:36:12;6.28;;;2.35;;
11247;SDS011;5681;53.316;13.950;2023-05-17T10:38:39;10.25;;;2.63;;
11247;SDS011;5681;53.316;13.950;2023-05-17T10:41:05;10.85;;;2.88;;
11247;SDS011;5681;53.316;13.950;2023-05-17T10:43:32;10.10;;;2.78;;
11247;SDS011;5681;53.316;13.950;2023-05-17T10:45:58;12.10;;;2.88;;
11247;SDS011;5681;53.316;13.950;2023-05-17T10:48:26;10.50;;;2.60;;
11247;SDS011;5681;53.316;13.950;2023-05-17T10:50:54;8.45;;;2.70;;
11247;SDS011;5681;53.316;13.950;2023-05-17T10:53:20;10.20;;;2.67;;
11247;SDS011;5681;53.316;13.950;2023-05-17T10:55:47;11.32;;;2.60;;
11247;SDS011;5681;53.316;13.950;2023-05-17T10:58:14;10.70;;;2.88;;
11247;SDS011;5681;53.316;13.950;2023-05-17T11:00:42;14.57;;;3.13;;
11247;SDS011;5681;53.316;13.950;2023-05-17T11:03:10;13.45;;;2.78;;
11247;SDS011;5681;53.316;13.950;2023-05-17T11:05:39;7.22;;;2.17;;
11247;SDS011;5681;53.316;13.950;2023-05-17T11:08:14;10.20;;;2.72;;
11247;SDS011;5681;53.316;13.950;2023-05-17T11:13:32;12.60;;;2.60;;
11247;SDS011;5681;53.316;13.950;2023-05-17T11:16:01;11.70;;;3.05;;
11247;SDS011;5681;53.316;13.950;2023-05-17T11:21:13;12.27;;;2.38;;
11247;SDS011;5681;53.316;13.950;2023-05-17T11:23:42;13.05;;;2.38;;
11247;SDS011;5681;53.316;13.950;2023-05-17T11:26:16;8.63;;;2.22;;
11247;SDS011;5681;53.316;13.950;2023-05-17T11:28:46;9.90;;;2.67;;
11247;SDS011;5681;53.316;13.950;2023-05-17T11:31:12;6.75;;;2.00;;
11247;SDS011;5681;53.316;13.950;2023-05-17T11:33:40;8.93;;;2.35;;
11247;SDS011;5681;53.316;13.950;2023-05-17T11:36:13;14.60;;;3.08;;
11247;SDS011;5681;53.316;13.950;2023-05-17T11:38:41;9.30;;;2.80;;
11247;SDS011;5681;53.316;13.950;2023-05-17T11:41:15;7.28;;;2.47;;
11247;SDS011;5681;53.316;13.950;2023-05-17T11:43:44;10.13;;;2.42;;
11247;SDS011;5681;53.316;13.950;2023-05-17T11:46:15;11.18;;;3.17;;
11247;SDS011;5681;53.316;13.950;2023-05-17T11:48:44;9.82;;;2.75;;
11247;SDS011;5681;53.316;13.950;2023-05-17T11:51:12;9.65;;;2.85;;
11247;SDS011;5681;53.316;13.950;2023-05-17T11:53:38;6.22;;;2.25;;
11247;SDS011;5681;53.316;13.950;2023-05-17T11:56:06;9.65;;;2.63;;
11247;SDS011;5681;53.316;13.950;2023-05-17T11:58:33;8.38;;;2.65;;
11247;SDS011;5681;53.316;13.950;2023-05-17T12:00:59;9.85;;;2.70;;
11247;SDS011;5681;53.316;13.950;2023-05-17T12:03:27;8.35;;;2.63;;
11247;SDS011;5681;53.316;13.950;2023-05-17T12:06:00;9.80;;;2.35;;
11247;SDS011;5681;53.316;13.950;2023-05-17T12:08:28;11.65;;;2.67;;
11247;SDS011;5681;53.316;13.950;2023-05-17T12:10:56;10.02;;;2.75;;
11247;SDS011;5681;53.316;13.950;2023-05-17T12:13:24;8.95;;;2.60;;
11247;SDS011;5681;53.316;13.950;2023-05-17T12:15:53;8.68;;;2.50;;
11247;SDS011;5681;53.316;13.950;2023-05-17T12:18:21;11.57;;;2.67;;
11247;SDS011;5681;53.316;13.950;2023-05-17T12:20:54;8.52;;;2.60;;
11247;SDS011;5681;53.316;13.950;2023-05-17T12:23:24;8.98;;;2.65;;
11247;SDS011;5681;53.316;13.950;2023-05-17T12:26:00;10.90;;;2.72;;
11247;SDS011;5681;53.316;13.950;2023-05-17T12:28:29;9.40;;;2.50;;
11247;SDS011;5681;53.316;13.950;2023-05-17T12:30:55;8.25;;;2.00;;
11247;SDS011;5681;53.316;13.950;2023-05-17T12:33:25;8.02;;;2.78;;
11247;SDS011;5681;53.316;13.950;2023-05-17T12:35:51;11.80;;;3.17;;
11247;SDS011;5681;53.316;13.950;2023-05-17T12:38:18;8.40;;;2.88;;
11247;SDS011;5681;53.316;13.950;2023-05-17T12:40:44;7.10;;;2.10;;
11247;SDS011;5681;53.316;13.950;2023-05-17T12:43:11;8.60;;;2.63;;
11247;SDS011;5681;53.316;13.950;2023-05-17T12:45:41;8.57;;;2.17;;
11247;SDS011;5681;53.316;13.950;2023-05-17T12:48:07;10.82;;;2.67;;
11247;SDS011;5681;53.316;13.950;2023-05-17T12:50:33;7.72;;;2.10;;
11247;SDS011;5681;53.316;13.950;2023-05-17T12:53:06;7.75;;;2.03;;
11247;SDS011;5681;53.316;13.950;2023-05-17T12:55:34;9.02;;;2.38;;
11247;SDS011;5681;53.316;13.950;2023-05-17T12:58:01;8.98;;;2.33;;
11247;SDS011;5681;53.316;13.950;2023-05-17T13:00:28;12.48;;;2.25;;
11247;SDS011;5681;53.316;13.950;2023-05-17T13:02:55;8.35;;;2.05;;
11247;SDS011;5681;53.316;13.950;2023-05-17T13:05:22;6.80;;;1.90;;
11247;SDS011;5681;53.316;13.950;2023-05-17T13:07:48;9.82;;;1.92;;
11247;SDS011;5681;53.316;13.950;2023-05-17T13:10:21;10.75;;;2.17;;
11247;SDS011;5681;53.316;13.950;2023-05-17T13:12:53;5.35;;;1.75;;
11247;SDS011;5681;53.316;13.950;2023-05-17T13:15:25;9.07;;;2.30;;
11247;SDS011;5681;53.316;13.950;2023-05-17T13:17:52;8.80;;;1.90;;
11247;SDS011;5681;53.316;13.950;2023-05-17T13:20:20;7.45;;;2.20;;
11247;SDS011;5681;53.316;13.950;2023-05-17T13:22:47;8.32;;;1.90;;
11247;SDS011;5681;53.316;13.950;2023-05-17T13:25:13;7.10;;;1.77;;
11247;SDS011;5681;53.316;13.950;2023-05-17T13:27:40;12.68;;;2.50;;
11247;SDS011;5681;53.316;13.950;2023-05-17T13:30:10;7.45;;;2.15;;
11247;SDS011;5681;53.316;13.950;2023-05-17T13:32:37;9.48;;;2.28;;
11247;SDS011;5681;53.316;13.950;2023-05-17T13:35:04;12.05;;;2.42;;
11247;SDS011;5681;53.316;13.950;2023-05-17T13:37:32;8.02;;;2.40;;
11247;SDS011;5681;53.316;13.950;2023-05-17T13:39:59;10.13;;;2.13;;
11247;SDS011;5681;53.316;13.950;2023-05-17T13:42:25;8.40;;;2.50;;
11247;SDS011;5681;53.316;13.950;2023-05-17T13:44:52;9.43;;;2.40;;
11247;SDS011;5681;53.316;13.950;2023-05-17T13:47:18;11.18;;;2.50;;
11247;SDS011;5681;53.316;13.950;2023-05-17T13:49:45;6.95;;;2.38;;
11247;SDS011;5681;53.316;13.950;2023-05-17T13:52:11;7.90;;;2.40;;
11247;SDS011;5681;53.316;13.950;2023-05-17T13:54:40;16.42;;;3.15;;
11247;SDS011;5681;53.316;13.950;2023-05-17T13:57:06;9.77;;;2.42;;
11247;SDS011;5681;53.316;13.950;2023-05-17T13:59:33;8.45;;;2.50;;
11247;SDS011;5681;53.316;13.950;2023-05-17T14:01:59;11.02;;;2.42;;
11247;SDS011;5681;53.316;13.950;2023-05-17T14:04:26;9.65;;;2.10;;
11247;SDS011;5681;53.316;13.950;2023-05-17T14:06:52;7.95;;;2.88;;
11247;SDS011;5681;53.316;13.950;2023-05-17T14:09:18;10.30;;;2.45;;
11247;SDS011;5681;53.316;13.950;2023-05-17T14:11:46;8.10;;;2.50;;
11247;SDS011;5681;53.316;13.950;2023-05-17T14:14:13;10.70;;;2.72;;
11247;SDS011;5681;53.316;13.950;2023-05-17T14:16:39;8.68;;;2.40;;
11247;SDS011;5681;53.316;13.950;2023-05-17T14:19:06;8.48;;;2.38;;
11247;SDS011;5681;53.316;13.950;2023-05-17T14:21:32;5.22;;;1.95;;
11247;SDS011;5681;53.316;13.950;2023-05-17T14:23:58;8.80;;;2.25;;
11247;SDS011;5681;53.316;13.950;2023-05-17T14:26:25;7.35;;;2.28;;
11247;SDS011;5681;53.316;13.950;2023-05-17T14:28:52;5.10;;;2.00;;
11247;SDS011;5681;53.316;13.950;2023-05-17T14:31:19;9.43;;;2.20;;
11247;SDS011;5681;53.316;13.950;2023-05-17T14:33:45;4.75;;;1.67;;
11247;SDS011;5681;53.316;13.950;2023-05-17T14:36:11;7.35;;;1.92;;
11247;SDS011;5681;53.316;13.950;2023-05-17T14:38:38;6.55;;;2.13;;
11247;SDS011;5681;53.316;13.950;2023-05-17T14:41:04;4.28;;;1.70;;
11247;SDS011;5681;53.316;13.950;2023-05-17T14:43:31;9.05;;;1.65;;